Time;durP1;ratioP1;P1;durP2;ratioP2;P2;SDS_P1;SDS_P2;PMS_P1;PMS_P2;Temp;Humidity;BMP_temperature;BMP_pressure;BME280_temperature;BME280_humidity;BME280_pressure;Samples;Min_cycle;Max_cycle;Signal;HPM_P1;HPM_P2
2023/07/13 00:01:04;;;;;;;;;2.33;1.00;;;;;;;;4808385;29;28555;-91
2023/07/13 00:03:35;;;;;;;;;3.00;1.00;;;;;;;;4808427;29;29122;-91
2023/07/13 00:06:03;;;;;;;;;0.00;0.00;;;;;;;;4808065;29;28244;-91
2023/07/13 00:08:30;;;;;;;;;1.67;1.67;;;;;;;;4808301;29;28427;-91
2023/07/13 00:10:56;;;;;;;;;0.67;0.67;;;;;;;;4791866;29;28634;-91
2023/07/13 00:13:21;;;;;;;;;2.00;2.00;;;;;;;;4791826;29;30096;-91
2023/07/13 00:15:46;;;;;;;;;2.00;2.00;;;;;;;;4808042;29;28415;-92
2023/07/13 00:18:12;;;;;;;;;1.67;1.00;;;;;;;;4808282;29;28478;-91
2023/07/13 00:20:37;;;;;;;;;1.33;1.33;;;;;;;;4791417;29;28449;-92
2023/07/13 00:23:02;;;;;;;;;0.67;0.67;;;;;;;;4808230;29;28436;-91
2023/07/13 00:25:30;;;;;;;;;2.00;2.00;;;;;;;;4791418;29;28599;-91
2023/07/13 00:27:56;;;;;;;;;1.00;1.00;;;;;;;;4822291;29;28277;-91
2023/07/13 00:30:21;;;;;;;;;0.33;0.00;;;;;;;;4811459;29;28295;-91
2023/07/13 00:32:46;;;;;;;;;2.00;2.00;;;;;;;;4794824;29;29800;-92
2023/07/13 00:35:13;;;;;;;;;1.00;1.00;;;;;;;;4810861;29;28235;-91
2023/07/13 00:37:38;;;;;;;;;1.33;1.33;;;;;;;;4811218;29;28587;-91
2023/07/13 00:40:05;;;;;;;;;3.00;3.00;;;;;;;;4811046;29;28433;-92
2023/07/13 00:42:30;;;;;;;;;1.00;1.00;;;;;;;;4794563;29;28408;-91
2023/07/13 00:45:25;;;;;;;;;1.00;1.00;;;;;;;;4794599;29;28575;-91
2023/07/13 00:47:50;;;;;;;;;2.00;2.00;;;;;;;;4794565;29;28436;-91
2023/07/13 00:50:19;;;;;;;;;1.67;1.67;;;;;;;;4794256;29;28510;-91
2023/07/13 00:52:46;;;;;;;;;1.00;1.00;;;;;;;;4794415;29;29981;-91
2023/07/13 00:55:12;;;;;;;;;3.00;1.33;;;;;;;;4810788;29;28341;-91
2023/07/13 00:57:37;;;;;;;;;2.00;2.00;;;;;;;;4794447;29;28333;-91
2023/07/13 01:00:04;;;;;;;;;1.00;1.00;;;;;;;;4794637;29;28469;-91
2023/07/13 01:02:30;;;;;;;;;1.00;1.00;;;;;;;;4810628;29;28337;-91
2023/07/13 01:04:55;;;;;;;;;1.33;1.33;;;;;;;;4794362;29;28526;-91
2023/07/13 01:07:21;;;;;;;;;1.67;1.67;;;;;;;;4794065;29;28476;-91
2023/07/13 01:09:46;;;;;;;;;0.67;0.67;;;;;;;;4810889;29;28353;-90
2023/07/13 01:12:11;;;;;;;;;0.67;0.67;;;;;;;;4810538;29;28636;-91
2023/07/13 01:14:37;;;;;;;;;3.33;3.00;;;;;;;;4794197;29;28357;-91
2023/07/13 01:17:03;;;;;;;;;4.33;2.00;;;;;;;;4810326;29;28486;-92
2023/07/13 01:19:39;;;;;;;;;4.00;2.00;;;;;;;;4810767;29;28396;-90
2023/07/13 01:22:08;;;;;;;;;2.00;1.00;;;;;;;;4810089;29;29220;-91
2023/07/13 01:24:34;;;;;;;;;1.67;1.67;;;;;;;;4810414;29;28499;-92
2023/07/13 01:26:59;;;;;;;;;3.67;2.00;;;;;;;;4794073;29;28537;-91
2023/07/13 01:29:24;;;;;;;;;2.00;2.00;;;;;;;;4810638;29;28517;-91
2023/07/13 01:31:49;;;;;;;;;2.00;2.00;;;;;;;;4810214;29;28533;-91
2023/07/13 01:34:14;;;;;;;;;1.00;1.00;;;;;;;;4810487;29;28553;-91
2023/07/13 01:36:40;;;;;;;;;2.67;0.67;;;;;;;;4793812;29;28662;-91
2023/07/13 01:39:05;;;;;;;;;2.67;2.67;;;;;;;;4810484;29;28305;-91
2023/07/13 01:41:30;;;;;;;;;1.67;1.67;;;;;;;;4795956;29;29580;-91
2023/07/13 01:43:55;;;;;;;;;3.33;2.00;;;;;;;;4819722;29;28502;-91
2023/07/13 01:46:21;;;;;;;;;2.67;2.67;;;;;;;;4810261;29;28332;-91
2023/07/13 01:48:46;;;;;;;;;3.67;2.67;;;;;;;;4810236;29;28388;-91
2023/07/13 01:51:13;;;;;;;;;3.33;3.33;;;;;;;;4793302;29;30083;-91
2023/07/13 01:53:39;;;;;;;;;1.00;1.00;;;;;;;;4810255;29;28409;-91
2023/07/13 01:56:04;;;;;;;;;3.00;3.00;;;;;;;;4793637;29;28335;-92
2023/07/13 01:58:29;;;;;;;;;3.33;3.33;;;;;;;;4793647;29;28610;-91
2023/07/13 02:00:55;;;;;;;;;4.67;4.33;;;;;;;;4809845;29;28351;-91
2023/07/13 02:03:20;;;;;;;;;6.00;4.67;;;;;;;;4793677;29;28377;-91
2023/07/13 02:05:45;;;;;;;;;7.67;7.67;;;;;;;;4793296;29;28361;-92
2023/07/13 02:08:10;;;;;;;;;6.67;6.67;;;;;;;;4793788;29;28473;-91
2023/07/13 02:10:36;;;;;;;;;2.00;2.00;;;;;;;;4793195;29;29705;-91
2023/07/13 02:13:02;;;;;;;;;2.00;2.00;;;;;;;;4809930;29;28252;-91
2023/07/13 02:15:27;;;;;;;;;3.00;3.00;;;;;;;;4809819;29;28293;-91
2023/07/13 02:17:52;;;;;;;;;2.00;2.00;;;;;;;;4809937;29;28244;-91
2023/07/13 02:20:18;;;;;;;;;4.00;4.00;;;;;;;;4792743;29;29695;-91
2023/07/13 02:22:43;;;;;;;;;4.00;4.00;;;;;;;;4809720;29;28289;-91
2023/07/13 02:25:08;;;;;;;;;3.00;3.00;;;;;;;;4809604;29;28354;-91
2023/07/13 02:27:34;;;;;;;;;6.33;2.67;;;;;;;;4793392;29;28696;-91
2023/07/13 02:29:59;;;;;;;;;7.00;3.00;;;;;;;;4809422;29;29205;-92
2023/07/13 02:32:25;;;;;;;;;4.67;4.67;;;;;;;;4793318;29;28559;-91
2023/07/13 02:34:50;;;;;;;;;3.33;3.33;;;;;;;;4793104;29;28512;-91
2023/07/13 02:37:16;;;;;;;;;3.67;3.67;;;;;;;;4792969;29;28523;-91
2023/07/13 02:39:41;;;;;;;;;2.00;2.00;;;;;;;;4792789;29;29386;-91
2023/07/13 02:42:06;;;;;;;;;1.67;1.67;;;;;;;;4809452;29;28430;-91
2023/07/13 02:44:32;;;;;;;;;3.00;2.33;;;;;;;;4793078;29;28432;-91
2023/07/13 02:46:57;;;;;;;;;3.33;2.33;;;;;;;;4793134;29;28420;-91
2023/07/13 02:49:22;;;;;;;;;2.00;2.00;;;;;;;;4809046;29;28468;-91
2023/07/13 02:51:48;;;;;;;;;2.00;2.00;;;;;;;;4809011;29;28460;-91
2023/07/13 02:54:13;;;;;;;;;2.00;2.00;;;;;;;;4809253;29;28443;-91
2023/07/13 02:56:39;;;;;;;;;2.00;2.00;;;;;;;;4809278;29;28274;-92
2023/07/13 02:59:04;;;;;;;;;3.00;3.00;;;;;;;;4792565;29;29926;-91
2023/07/13 03:01:29;;;;;;;;;2.00;2.00;;;;;;;;4809280;29;28328;-91
2023/07/13 03:03:55;;;;;;;;;1.00;1.00;;;;;;;;4809071;29;28340;-91
2023/07/13 03:06:21;;;;;;;;;4.00;2.67;;;;;;;;4809041;29;28398;-91
2023/07/13 03:08:46;;;;;;;;;1.67;1.67;;;;;;;;4792262;29;29634;-91
2023/07/13 03:11:13;;;;;;;;;1.67;1.67;;;;;;;;4809274;29;28328;-91
2023/07/13 03:13:40;;;;;;;;;1.67;1.67;;;;;;;;4808976;29;28376;-91
2023/07/13 03:16:06;;;;;;;;;4.00;2.00;;;;;;;;4809117;29;28403;-92
2023/07/13 03:18:31;;;;;;;;;2.33;2.33;;;;;;;;4792200;29;30747;-91
2023/07/13 03:20:56;;;;;;;;;2.00;2.00;;;;;;;;4792315;29;28492;-91
2023/07/13 03:23:22;;;;;;;;;3.00;3.00;;;;;;;;4808824;29;28448;-91
2023/07/13 03:25:47;;;;;;;;;2.67;2.67;;;;;;;;4808997;29;28358;-91
2023/07/13 03:28:13;;;;;;;;;0.33;0.33;;;;;;;;4808665;29;28502;-91
2023/07/13 03:30:38;;;;;;;;;4.00;4.00;;;;;;;;4792422;29;29327;-91
2023/07/13 03:33:04;;;;;;;;;5.00;4.00;;;;;;;;4792431;29;28445;-92
2023/07/13 03:35:29;;;;;;;;;3.67;3.67;;;;;;;;4808582;29;28340;-91
2023/07/13 03:37:54;;;;;;;;;3.33;3.33;;;;;;;;4792309;29;28566;-91
2023/07/13 03:40:20;;;;;;;;;2.67;2.67;;;;;;;;4792243;29;28244;-91
2023/07/13 03:42:45;;;;;;;;;3.33;2.33;;;;;;;;4792469;29;28440;-92
2023/07/13 03:45:10;;;;;;;;;3.33;2.67;;;;;;;;4792420;29;28705;-91
2023/07/13 03:47:35;;;;;;;;;4.33;4.33;;;;;;;;4808606;29;28541;-91
2023/07/13 03:50:01;;;;;;;;;4.00;3.00;;;;;;;;4791740;29;28345;-91
2023/07/13 03:52:26;;;;;;;;;2.67;2.33;;;;;;;;4792042;29;28433;-91
2023/07/13 03:54:51;;;;;;;;;2.33;2.33;;;;;;;;4791998;29;28274;-91
2023/07/13 03:57:17;;;;;;;;;2.00;2.00;;;;;;;;4808271;29;28351;-91
2023/07/13 03:59:42;;;;;;;;;2.67;2.67;;;;;;;;4791968;29;29563;-91
2023/07/13 04:02:08;;;;;;;;;4.00;2.67;;;;;;;;4792304;29;28309;-91
2023/07/13 04:04:33;;;;;;;;;2.67;2.67;;;;;;;;4796584;29;28524;-91
2023/07/13 04:06:59;;;;;;;;;3.00;2.00;;;;;;;;4797596;29;30351;-91
2023/07/13 04:09:24;;;;;;;;;1.00;1.00;;;;;;;;4797609;29;29377;-91
2023/07/13 04:11:50;;;;;;;;;4.67;2.67;;;;;;;;4814535;29;28387;-91
2023/07/13 04:14:15;;;;;;;;;2.00;2.00;;;;;;;;4797845;29;28345;-91
2023/07/13 04:16:40;;;;;;;;;4.00;2.67;;;;;;;;4797940;29;31536;-91
2023/07/13 04:19:06;;;;;;;;;1.33;1.33;;;;;;;;4797559;29;28609;-91
2023/07/13 04:21:31;;;;;;;;;2.67;1.33;;;;;;;;4797660;29;28339;-91
2023/07/13 04:23:56;;;;;;;;;4.67;4.00;;;;;;;;4814026;29;28423;-91
2023/07/13 04:26:22;;;;;;;;;1.00;1.00;;;;;;;;4797796;29;28856;-91
2023/07/13 04:28:48;;;;;;;;;2.00;2.00;;;;;;;;4813962;29;28531;-91
2023/07/13 04:31:13;;;;;;;;;2.00;2.00;;;;;;;;4797833;29;28412;-91
2023/07/13 04:33:38;;;;;;;;;2.00;2.00;;;;;;;;4814142;29;28523;-91
2023/07/13 04:36:04;;;;;;;;;2.67;2.67;;;;;;;;4813745;29;28485;-91
2023/07/13 04:38:30;;;;;;;;;2.67;2.67;;;;;;;;4797533;29;28464;-91
2023/07/13 04:41:03;;;;;;;;;2.00;2.00;;;;;;;;4797555;29;28433;-91
2023/07/13 04:43:28;;;;;;;;;4.00;2.67;;;;;;;;4813991;29;28449;-91
2023/07/13 04:45:54;;;;;;;;;3.00;3.00;;;;;;;;4814048;29;28415;-91
2023/07/13 04:48:20;;;;;;;;;2.67;2.67;;;;;;;;4797162;29;28526;-91
2023/07/13 04:50:46;;;;;;;;;2.67;2.67;;;;;;;;4797233;29;28516;-91
2023/07/13 04:53:11;;;;;;;;;3.00;3.00;;;;;;;;4813940;29;28255;-91
2023/07/13 04:55:37;;;;;;;;;8.00;3.00;;;;;;;;4797120;29;28471;-91
2023/07/13 04:58:02;;;;;;;;;4.00;3.00;;;;;;;;4797128;29;28261;-92
2023/07/13 05:00:28;;;;;;;;;3.00;3.00;;;;;;;;4797472;29;28282;-91
2023/07/13 05:02:55;;;;;;;;;3.00;3.00;;;;;;;;4797519;29;28359;-91
2023/07/13 05:05:20;;;;;;;;;3.67;3.67;;;;;;;;4796958;29;30082;-91
2023/07/13 05:07:45;;;;;;;;;2.67;2.67;;;;;;;;4797126;29;29493;-91
2023/07/13 05:10:11;;;;;;;;;5.67;4.00;;;;;;;;4813694;29;28420;-91
2023/07/13 05:12:36;;;;;;;;;2.00;2.00;;;;;;;;4813699;29;28470;-91
2023/07/13 05:15:02;;;;;;;;;2.67;2.67;;;;;;;;4811360;29;28449;-91
2023/07/13 05:17:28;;;;;;;;;2.67;2.67;;;;;;;;4810481;29;28411;-91
2023/07/13 05:19:53;;;;;;;;;1.67;1.67;;;;;;;;4810604;29;28541;-91
2023/07/13 05:22:18;;;;;;;;;1.67;1.67;;;;;;;;4810293;29;28328;-91
2023/07/13 05:24:43;;;;;;;;;2.67;2.67;;;;;;;;4810307;29;29335;-91
2023/07/13 05:27:09;;;;;;;;;3.00;3.00;;;;;;;;4810396;29;28408;-92
2023/07/13 05:29:34;;;;;;;;;7.00;4.00;;;;;;;;4810627;29;28349;-92
2023/07/13 05:31:59;;;;;;;;;2.67;2.67;;;;;;;;4794034;29;28345;-91
2023/07/13 05:34:24;;;;;;;;;3.00;3.00;;;;;;;;4810344;29;28327;-91
2023/07/13 05:36:50;;;;;;;;;3.00;3.00;;;;;;;;4793568;29;28418;-92
2023/07/13 05:39:16;;;;;;;;;2.67;2.67;;;;;;;;4810260;29;28390;-92
2023/07/13 05:41:41;;;;;;;;;2.00;2.00;;;;;;;;4814568;29;28340;-91
2023/07/13 05:44:06;;;;;;;;;1.67;1.67;;;;;;;;4801644;29;28389;-91
2023/07/13 05:46:32;;;;;;;;;2.00;2.00;;;;;;;;4793852;29;28291;-91
2023/07/13 05:48:57;;;;;;;;;5.00;3.00;;;;;;;;4810112;29;28413;-91
2023/07/13 05:51:22;;;;;;;;;3.00;3.00;;;;;;;;4793428;29;28743;-91
2023/07/13 05:53:47;;;;;;;;;3.00;3.00;;;;;;;;4810038;29;28249;-91
2023/07/13 05:56:13;;;;;;;;;1.00;1.00;;;;;;;;4793830;29;28289;-91
2023/07/13 05:58:38;;;;;;;;;5.00;5.00;;;;;;;;4793586;29;28284;-91
2023/07/13 06:01:07;;;;;;;;;3.00;3.00;;;;;;;;4810089;29;28486;-91
2023/07/13 06:03:32;;;;;;;;;2.00;2.00;;;;;;;;4809979;29;28447;-92
2023/07/13 06:06:00;;;;;;;;;4.00;4.00;;;;;;;;4793112;29;28464;-91
2023/07/13 06:08:25;;;;;;;;;2.33;2.33;;;;;;;;4809929;29;28411;-91
2023/07/13 06:10:50;;;;;;;;;2.00;2.00;;;;;;;;4809818;29;28249;-91
2023/07/13 06:13:15;;;;;;;;;4.00;4.00;;;;;;;;4809878;29;28292;-91
2023/07/13 06:15:41;;;;;;;;;1.33;1.33;;;;;;;;4809685;29;28237;-91
2023/07/13 06:18:06;;;;;;;;;3.00;3.00;;;;;;;;4809878;29;28270;-91
2023/07/13 06:20:33;;;;;;;;;2.33;1.00;;;;;;;;4809564;29;28250;-92
2023/07/13 06:22:58;;;;;;;;;3.00;3.00;;;;;;;;4809842;29;29636;-91
2023/07/13 06:25:24;;;;;;;;;2.33;2.00;;;;;;;;4809481;29;28304;-92
2023/07/13 06:27:49;;;;;;;;;7.67;4.00;;;;;;;;4809422;29;28495;-91
2023/07/13 06:30:14;;;;;;;;;2.00;2.00;;;;;;;;4809946;29;28453;-91
2023/07/13 06:32:39;;;;;;;;;2.00;2.00;;;;;;;;4809832;29;29088;-91
2023/07/13 06:35:05;;;;;;;;;3.33;3.33;;;;;;;;4809057;29;28432;-91
2023/07/13 06:37:30;;;;;;;;;2.00;2.00;;;;;;;;4809743;29;28356;-91
2023/07/13 06:39:55;;;;;;;;;3.00;3.00;;;;;;;;4793055;29;28464;-91
2023/07/13 06:42:21;;;;;;;;;1.67;1.67;;;;;;;;4809514;29;29276;-92
2023/07/13 06:44:46;;;;;;;;;2.00;2.00;;;;;;;;4809240;29;28486;-91
2023/07/13 06:47:11;;;;;;;;;5.00;3.67;;;;;;;;4809678;29;28311;-92
2023/07/13 06:49:37;;;;;;;;;2.33;2.33;;;;;;;;4792930;29;28596;-92
2023/07/13 06:52:02;;;;;;;;;2.00;2.00;;;;;;;;4808995;29;28403;-91
2023/07/13 06:54:36;;;;;;;;;3.00;3.00;;;;;;;;4808994;29;28353;-91
2023/07/13 06:57:01;;;;;;;;;5.33;3.67;;;;;;;;4792866;29;28376;-91
2023/07/13 06:59:26;;;;;;;;;2.00;1.00;;;;;;;;4792691;29;28457;-91
2023/07/13 07:01:52;;;;;;;;;3.00;3.00;;;;;;;;4809270;29;28452;-92
2023/07/13 07:04:17;;;;;;;;;3.00;3.00;;;;;;;;4808982;29;28544;-91
2023/07/13 07:06:42;;;;;;;;;3.00;3.00;;;;;;;;4809044;29;28535;-91
2023/07/13 07:09:08;;;;;;;;;3.67;3.67;;;;;;;;4792722;29;28414;-91
2023/07/13 07:11:34;;;;;;;;;3.33;3.33;;;;;;;;4792681;29;29826;-91
2023/07/13 07:13:59;;;;;;;;;3.00;3.00;;;;;;;;4808854;29;28395;-91
2023/07/13 07:16:25;;;;;;;;;3.00;3.00;;;;;;;;4809220;29;28346;-91
2023/07/13 07:18:50;;;;;;;;;3.00;3.00;;;;;;;;4808775;29;28669;-91
2023/07/13 07:21:15;;;;;;;;;5.00;3.67;;;;;;;;4808561;29;28234;-91
2023/07/13 07:23:42;;;;;;;;;2.67;2.67;;;;;;;;4808609;29;28266;-91
2023/07/13 07:26:08;;;;;;;;;3.00;3.00;;;;;;;;4808926;29;28399;-91
2023/07/13 07:28:33;;;;;;;;;3.00;3.00;;;;;;;;4808831;29;28313;-91
2023/07/13 07:30:59;;;;;;;;;2.00;2.00;;;;;;;;4808789;29;28300;-92
2023/07/13 07:33:25;;;;;;;;;2.67;2.67;;;;;;;;4792368;29;28524;-91
2023/07/13 07:35:50;;;;;;;;;2.00;2.00;;;;;;;;4792139;29;28425;-91
2023/07/13 07:38:15;;;;;;;;;2.00;2.00;;;;;;;;4807932;29;28399;-91
2023/07/13 07:40:44;;;;;;;;;3.33;3.33;;;;;;;;4792324;29;29625;-92
2023/07/13 07:43:10;;;;;;;;;4.67;4.67;;;;;;;;4808417;29;28356;-91
2023/07/13 07:45:38;;;;;;;;;2.00;2.00;;;;;;;;4792313;29;28370;-91
2023/07/13 07:48:07;;;;;;;;;2.67;2.67;;;;;;;;4808516;29;28328;-92
2023/07/13 07:50:32;;;;;;;;;2.00;2.00;;;;;;;;4807994;29;29156;-92
2023/07/13 07:53:07;;;;;;;;;3.00;3.00;;;;;;;;4791981;29;28601;-91
2023/07/13 07:55:32;;;;;;;;;3.00;3.00;;;;;;;;4791964;29;28673;-91
2023/07/13 07:58:01;;;;;;;;;3.00;3.00;;;;;;;;4791975;29;28361;-92
2023/07/13 08:00:28;;;;;;;;;2.00;2.00;;;;;;;;4808377;29;28453;-91
2023/07/13 08:02:53;;;;;;;;;2.00;2.00;;;;;;;;4791820;29;29392;-91
2023/07/13 08:05:18;;;;;;;;;3.00;3.00;;;;;;;;4808194;29;28304;-92
2023/07/13 08:07:43;;;;;;;;;2.33;2.33;;;;;;;;4791992;29;28290;-92
2023/07/13 08:10:09;;;;;;;;;3.00;3.00;;;;;;;;4808273;29;28557;-92
2023/07/13 08:12:35;;;;;;;;;2.33;2.33;;;;;;;;4791783;29;28763;-92
2023/07/13 08:15:01;;;;;;;;;2.00;2.00;;;;;;;;4792072;29;28411;-92
2023/07/13 08:17:26;;;;;;;;;3.67;3.67;;;;;;;;4791612;29;28516;-92
2023/07/13 08:19:52;;;;;;;;;1.00;1.00;;;;;;;;4807893;29;28598;-91
2023/07/13 08:22:17;;;;;;;;;3.00;3.00;;;;;;;;4808020;29;28352;-91
2023/07/13 08:24:43;;;;;;;;;3.00;2.33;;;;;;;;4791683;29;28483;-91
2023/07/13 08:27:08;;;;;;;;;3.00;3.00;;;;;;;;4808157;29;28531;-91
2023/07/13 08:29:33;;;;;;;;;4.00;2.67;;;;;;;;4808219;29;28407;-92
2023/07/13 08:31:59;;;;;;;;;4.33;4.00;;;;;;;;4807931;29;28627;-91
2023/07/13 08:34:26;;;;;;;;;4.33;3.33;;;;;;;;4808062;29;28513;-91
2023/07/13 08:36:52;;;;;;;;;4.00;3.00;;;;;;;;4791430;29;28282;-92
2023/07/13 08:39:17;;;;;;;;;2.67;2.67;;;;;;;;4807879;29;28605;-92
2023/07/13 08:41:44;;;;;;;;;1.00;1.00;;;;;;;;4807868;29;28489;-92
2023/07/13 08:44:30;;;;;;;;;4.00;2.00;;;;;;;;4791575;29;28503;-92
2023/07/13 08:46:56;;;;;;;;;2.67;2.67;;;;;;;;4808083;29;28430;-92
2023/07/13 08:49:23;;;;;;;;;1.00;1.00;;;;;;;;4808228;29;29399;-92
2023/07/13 08:51:50;;;;;;;;;2.67;2.67;;;;;;;;4810669;29;28407;-92
2023/07/13 08:54:32;;;;;;;;;2.00;2.00;;;;;;;;4810848;29;28604;-91
2023/07/13 08:57:00;;;;;;;;;1.33;1.33;;;;;;;;4810998;29;28592;-92
2023/07/13 08:59:28;;;;;;;;;2.67;2.67;;;;;;;;4810804;29;29305;-92
2023/07/13 09:01:56;;;;;;;;;2.00;2.00;;;;;;;;4794487;29;28675;-92
2023/07/13 09:04:24;;;;;;;;;2.67;2.00;;;;;;;;4824751;29;28395;-92
2023/07/13 09:06:55;;;;;;;;;2.00;2.00;;;;;;;;4810672;29;28725;-92
2023/07/13 09:09:38;;;;;;;;;2.00;2.00;;;;;;;;4810485;29;28488;-92
2023/07/13 09:12:09;;;;;;;;;2.00;2.00;;;;;;;;4810705;29;29371;-92
2023/07/13 09:14:54;;;;;;;;;1.67;1.67;;;;;;;;4810830;29;28591;-92
2023/07/13 09:17:33;;;;;;;;;1.00;1.00;;;;;;;;4810329;29;28259;-93
2023/07/13 09:20:00;;;;;;;;;1.00;1.00;;;;;;;;4810376;29;28378;-92
2023/07/13 09:22:27;;;;;;;;;0.67;0.67;;;;;;;;4794051;29;28806;-92
2023/07/13 09:24:52;;;;;;;;;1.00;1.00;;;;;;;;4810560;29;28431;-92
2023/07/13 09:27:20;;;;;;;;;3.00;3.00;;;;;;;;4810692;29;28407;-92
2023/07/13 09:29:49;;;;;;;;;2.00;2.00;;;;;;;;4810498;29;28398;-92
2023/07/13 09:32:18;;;;;;;;;1.00;1.00;;;;;;;;4810548;29;28312;-91
2023/07/13 09:34:49;;;;;;;;;1.00;1.00;;;;;;;;4810300;29;28514;-92
2023/07/13 09:37:14;;;;;;;;;1.00;1.00;;;;;;;;4810619;29;28396;-92
2023/07/13 09:39:42;;;;;;;;;1.00;1.00;;;;;;;;4810151;29;28642;-91
2023/07/13 09:42:18;;;;;;;;;1.00;1.00;;;;;;;;4793962;29;29614;-92
2023/07/13 09:44:55;;;;;;;;;1.00;1.00;;;;;;;;4793992;29;28506;-92
2023/07/13 09:47:23;;;;;;;;;0.00;0.00;;;;;;;;4810450;29;28249;-92
2023/07/13 09:49:53;;;;;;;;;1.00;1.00;;;;;;;;4793248;29;29686;-92
2023/07/13 09:52:18;;;;;;;;;1.00;1.00;;;;;;;;4793759;29;29596;-92
2023/07/13 09:54:45;;;;;;;;;1.67;1.67;;;;;;;;4793535;29;28361;-92
2023/07/13 09:57:13;;;;;;;;;1.00;1.00;;;;;;;;4793792;29;28279;-91
2023/07/13 09:59:46;;;;;;;;;1.00;1.00;;;;;;;;4809895;29;28333;-92
2023/07/13 10:02:34;;;;;;;;;2.00;1.00;;;;;;;;4809471;29;28260;-92
2023/07/13 10:05:04;;;;;;;;;1.00;1.00;;;;;;;;4800307;29;28259;-92
2023/07/13 10:07:32;;;;;;;;;0.00;0.00;;;;;;;;4809877;29;28728;-92
2023/07/13 10:10:00;;;;;;;;;1.33;1.33;;;;;;;;4793452;29;29732;-92
2023/07/13 10:12:27;;;;;;;;;1.00;1.00;;;;;;;;4793256;29;29493;-92
2023/07/13 10:14:54;;;;;;;;;0.00;0.00;;;;;;;;4793529;29;28515;-92
2023/07/13 10:17:24;;;;;;;;;1.00;1.00;;;;;;;;4793406;29;28519;-92
2023/07/13 10:20:01;;;;;;;;;1.67;1.00;;;;;;;;4792882;29;29384;-92
2023/07/13 10:22:44;;;;;;;;;1.00;1.00;;;;;;;;4809543;29;28512;-92
2023/07/13 10:25:19;;;;;;;;;1.00;1.00;;;;;;;;4809593;29;28561;-92
2023/07/13 10:27:44;;;;;;;;;1.00;1.00;;;;;;;;4809964;29;28318;-92
2023/07/13 10:30:16;;;;;;;;;1.67;1.67;;;;;;;;4809560;29;28336;-92
2023/07/13 10:32:41;;;;;;;;;0.33;0.33;;;;;;;;4793339;29;28907;-92
2023/07/13 10:35:11;;;;;;;;;1.00;0.00;;;;;;;;4792799;29;28319;-92
2023/07/13 10:37:42;;;;;;;;;1.67;1.67;;;;;;;;4793282;29;28528;-92
2023/07/13 10:40:12;;;;;;;;;0.67;0.67;;;;;;;;4792850;29;29471;-92
2023/07/13 10:42:41;;;;;;;;;0.00;0.00;;;;;;;;4809595;29;28396;-92
2023/07/13 10:45:18;;;;;;;;;0.00;0.00;;;;;;;;4793028;29;28277;-92
2023/07/13 10:47:46;;;;;;;;;0.00;0.00;;;;;;;;4809475;29;28518;-92
2023/07/13 10:50:17;;;;;;;;;1.00;1.00;;;;;;;;4808777;29;28533;-92
2023/07/13 10:52:46;;;;;;;;;1.00;1.00;;;;;;;;4792880;29;29518;-92
2023/07/13 10:55:30;;;;;;;;;1.00;1.00;;;;;;;;4809197;29;28475;-92
2023/07/13 10:57:59;;;;;;;;;0.00;0.00;;;;;;;;4792788;29;28555;-92
2023/07/13 11:00:25;;;;;;;;;1.00;1.00;;;;;;;;4809084;29;28474;-92
2023/07/13 11:03:00;;;;;;;;;1.00;1.00;;;;;;;;4792621;29;28550;-92
2023/07/13 11:05:26;;;;;;;;;1.00;1.00;;;;;;;;4792643;29;28368;-92
2023/07/13 11:07:56;;;;;;;;;1.00;1.00;;;;;;;;4809361;29;28261;-92
2023/07/13 11:10:39;;;;;;;;;1.00;1.00;;;;;;;;4808848;29;28555;-92
2023/07/13 11:13:25;;;;;;;;;1.33;1.33;;;;;;;;4791642;29;28396;-92
2023/07/13 11:15:50;;;;;;;;;1.00;1.00;;;;;;;;4808807;29;28626;-92
2023/07/13 11:18:35;;;;;;;;;1.00;1.00;;;;;;;;4792702;29;28624;-92
2023/07/13 11:21:15;;;;;;;;;1.00;1.00;;;;;;;;4791851;29;28531;-92
2023/07/13 11:23:47;;;;;;;;;3.00;1.67;;;;;;;;4808696;29;28326;-92
2023/07/13 11:26:33;;;;;;;;;1.00;1.00;;;;;;;;4792624;29;28643;-92
2023/07/13 11:28:58;;;;;;;;;2.00;2.00;;;;;;;;4808981;29;28708;-92
2023/07/13 11:31:25;;;;;;;;;1.00;1.00;;;;;;;;4808603;29;28604;-92
2023/07/13 11:33:55;;;;;;;;;1.00;1.00;;;;;;;;4792460;29;29290;-92
2023/07/13 11:36:23;;;;;;;;;0.00;0.00;;;;;;;;4808388;29;28415;-92
2023/07/13 11:38:55;;;;;;;;;0.00;0.00;;;;;;;;4808820;29;28442;-92
2023/07/13 11:41:43;;;;;;;;;1.00;1.00;;;;;;;;4808388;29;29708;-92
2023/07/13 11:44:12;;;;;;;;;0.00;0.00;;;;;;;;4791784;29;28725;-92
2023/07/13 11:46:37;;;;;;;;;1.00;1.00;;;;;;;;4808574;29;28274;-92
2023/07/13 11:49:05;;;;;;;;;0.00;0.00;;;;;;;;4808599;29;28528;-92
2023/07/13 11:51:31;;;;;;;;;0.00;0.00;;;;;;;;4808042;29;29298;-92
2023/07/13 11:53:59;;;;;;;;;0.67;0.67;;;;;;;;4791915;29;29702;-91
2023/07/13 11:56:25;;;;;;;;;1.00;1.00;;;;;;;;4808377;29;28348;-92
2023/07/13 11:58:52;;;;;;;;;1.00;1.00;;;;;;;;4792082;29;28629;-92
2023/07/13 12:01:23;;;;;;;;;0.00;0.00;;;;;;;;4808238;29;29261;-92
2023/07/13 12:03:49;;;;;;;;;1.00;1.00;;;;;;;;4808518;29;28471;-92
2023/07/13 12:06:35;;;;;;;;;0.00;0.00;;;;;;;;4808009;29;28393;-91
2023/07/13 12:09:05;;;;;;;;;0.00;0.00;;;;;;;;4791839;29;28302;-92
2023/07/13 12:11:34;;;;;;;;;0.00;0.00;;;;;;;;4791960;29;29816;-92
2023/07/13 12:14:00;;;;;;;;;0.00;0.00;;;;;;;;4791789;29;28448;-92
2023/07/13 12:16:32;;;;;;;;;0.00;0.00;;;;;;;;4791911;29;28298;-92
2023/07/13 12:18:58;;;;;;;;;1.00;1.00;;;;;;;;4791742;29;28523;-91
2023/07/13 12:21:29;;;;;;;;;1.00;1.00;;;;;;;;4808032;29;29430;-92
2023/07/13 12:23:55;;;;;;;;;0.00;0.00;;;;;;;;4807914;29;28468;-92
2023/07/13 12:26:20;;;;;;;;;0.00;0.00;;;;;;;;4795370;29;28375;-92
2023/07/13 12:28:54;;;;;;;;;0.33;0.33;;;;;;;;4811260;29;28543;-92
2023/07/13 12:31:42;;;;;;;;;0.67;0.67;;;;;;;;4794986;29;29028;-92
2023/07/13 12:34:08;;;;;;;;;0.00;0.00;;;;;;;;4794974;29;28428;-92
2023/07/13 12:36:35;;;;;;;;;0.00;0.00;;;;;;;;4794526;29;28508;-92
2023/07/13 12:39:04;;;;;;;;;1.33;0.00;;;;;;;;4794873;29;28491;-92
2023/07/13 12:41:29;;;;;;;;;1.33;1.33;;;;;;;;4811087;29;28484;-92
2023/07/13 12:43:54;;;;;;;;;1.00;1.00;;;;;;;;4811513;29;28263;-92
2023/07/13 12:46:23;;;;;;;;;0.00;0.00;;;;;;;;4794831;29;28316;-92
2023/07/13 12:48:53;;;;;;;;;1.00;1.00;;;;;;;;4794655;29;28538;-92
2023/07/13 12:51:21;;;;;;;;;0.00;0.00;;;;;;;;4794198;29;28527;-92
2023/07/13 12:53:53;;;;;;;;;1.00;1.00;;;;;;;;4810923;29;28458;-92
2023/07/13 12:56:21;;;;;;;;;1.00;1.00;;;;;;;;4810954;29;28405;-92
2023/07/13 12:58:48;;;;;;;;;2.00;1.00;;;;;;;;4810916;29;28546;-92
2023/07/13 13:01:14;;;;;;;;;0.00;0.00;;;;;;;;4794364;29;30025;-92
2023/07/13 13:03:41;;;;;;;;;1.00;1.00;;;;;;;;4794486;29;28452;-92
2023/07/13 13:06:19;;;;;;;;;0.00;0.00;;;;;;;;4810583;29;28258;-92
2023/07/13 13:09:06;;;;;;;;;0.00;0.00;;;;;;;;4810806;29;28244;-92
2023/07/13 13:11:31;;;;;;;;;0.00;0.00;;;;;;;;4810561;29;28437;-92
2023/07/13 13:13:57;;;;;;;;;0.00;0.00;;;;;;;;4810632;29;28407;-92
2023/07/13 13:16:22;;;;;;;;;0.00;0.00;;;;;;;;4794392;29;28403;-92
2023/07/13 13:18:48;;;;;;;;;0.00;0.00;;;;;;;;4794105;29;28374;-92
2023/07/13 13:21:13;;;;;;;;;0.00;0.00;;;;;;;;4793944;29;30643;-92
2023/07/13 13:23:38;;;;;;;;;0.33;0.33;;;;;;;;4810428;29;28598;-92
2023/07/13 13:26:08;;;;;;;;;1.00;1.00;;;;;;;;4794300;29;28573;-92
2023/07/13 13:28:33;;;;;;;;;0.00;0.00;;;;;;;;4810683;29;28316;-92
2023/07/13 13:30:58;;;;;;;;;0.00;0.00;;;;;;;;4794108;29;28567;-92
2023/07/13 13:33:26;;;;;;;;;0.00;0.00;;;;;;;;4794019;29;28298;-92
2023/07/13 13:35:51;;;;;;;;;0.00;0.00;;;;;;;;4792948;29;28483;-92
2023/07/13 13:38:17;;;;;;;;;0.00;0.00;;;;;;;;4793962;29;28423;-92
2023/07/13 13:40:43;;;;;;;;;0.00;0.00;;;;;;;;4793840;29;30611;-92
2023/07/13 13:43:19;;;;;;;;;0.00;0.00;;;;;;;;4810227;29;28367;-91
2023/07/13 13:45:45;;;;;;;;;0.00;0.00;;;;;;;;4810559;29;28454;-92
2023/07/13 13:48:30;;;;;;;;;0.67;0.67;;;;;;;;4793810;29;28562;-92
2023/07/13 13:50:55;;;;;;;;;0.00;0.00;;;;;;;;4793400;29;29918;-92
2023/07/13 13:53:20;;;;;;;;;0.00;0.00;;;;;;;;4810253;29;28480;-91
2023/07/13 13:55:46;;;;;;;;;0.00;0.00;;;;;;;;4810210;29;28332;-92
2023/07/13 13:58:11;;;;;;;;;1.00;1.00;;;;;;;;4793802;29;28373;-92
2023/07/13 14:00:37;;;;;;;;;0.00;0.00;;;;;;;;4810025;29;29182;-92
2023/07/13 14:03:06;;;;;;;;;1.00;1.00;;;;;;;;4810107;29;28445;-92
2023/07/13 14:05:41;;;;;;;;;0.00;0.00;;;;;;;;4809769;29;28448;-92
2023/07/13 14:08:21;;;;;;;;;1.00;1.00;;;;;;;;4793655;29;28468;-92
2023/07/13 14:16:27;;;;;;;;;0.00;0.00;;;;;;;;4800151;29;28556;-92
2023/07/13 14:18:53;;;;;;;;;1.00;1.00;;;;;;;;4809675;29;28599;-92
2023/07/13 14:21:19;;;;;;;;;0.33;0.33;;;;;;;;4809591;29;28246;-92
2023/07/13 14:23:46;;;;;;;;;0.00;0.00;;;;;;;;4793135;29;28326;-92
2023/07/13 14:26:15;;;;;;;;;1.00;1.00;;;;;;;;4809929;29;28583;-92
2023/07/13 14:28:51;;;;;;;;;3.00;1.67;;;;;;;;4809542;29;28341;-91
2023/07/13 14:31:17;;;;;;;;;1.00;1.00;;;;;;;;4793298;29;30033;-92
2023/07/13 14:33:43;;;;;;;;;0.00;0.00;;;;;;;;4793056;29;28814;-92
2023/07/13 14:36:23;;;;;;;;;0.67;0.67;;;;;;;;4793016;29;28798;-92
2023/07/13 14:38:48;;;;;;;;;0.00;0.00;;;;;;;;4798378;29;28468;-92
2023/07/13 14:41:13;;;;;;;;;0.00;0.00;;;;;;;;4810203;29;28766;-91
2023/07/13 14:43:39;;;;;;;;;1.00;1.00;;;;;;;;4820921;29;28542;-92
2023/07/13 14:46:04;;;;;;;;;1.00;1.00;;;;;;;;4809621;29;28463;-92
2023/07/13 14:48:30;;;;;;;;;0.33;0.33;;;;;;;;4809106;29;28238;-92
2023/07/13 14:50:56;;;;;;;;;0.00;0.00;;;;;;;;4792675;29;29864;-92